createdAt,value
2019-03-24T16:01:04.056Z,39.62
2019-03-24T16:06:07.852Z,40.17
2019-03-24T16:11:10.886Z,35.93
2019-03-24T16:16:12.228Z,36.76
2019-03-24T16:21:13.716Z,35.66
2019-03-24T16:26:15.575Z,36.13
2019-03-24T16:31:17.387Z,38.07
2019-03-24T16:36:19.603Z,36.34
2019-03-24T16:41:21.368Z,33.06
2019-03-24T16:46:23.945Z,31.60
2019-03-24T16:51:25.227Z,30.26
2019-03-24T16:56:26.945Z,30.22
2019-03-24T17:01:28.003Z,30.65
2019-03-24T17:06:29.561Z,31.13
2019-03-24T17:11:31.344Z,32.17
2019-03-24T17:16:34.848Z,31.88
2019-03-24T17:21:49.297Z,31.53
2019-03-24T17:26:45.821Z,33.29
2019-03-24T17:31:47.278Z,34.04
2019-03-24T17:36:48.959Z,34.24
2019-03-24T17:41:50.541Z,35.10
2019-03-24T17:46:52.545Z,36.18
2019-03-24T17:52:00.755Z,35.41
2019-03-24T17:56:58.417Z,36.35
2019-03-24T18:02:01.449Z,36.11
2019-03-24T18:07:02.803Z,36.74
2019-03-24T18:12:06.583Z,37.28
2019-03-24T18:17:08.463Z,37.63
2019-03-24T18:22:11.750Z,38.68
2019-03-24T18:27:12.886Z,39.44
2019-03-24T18:32:15.169Z,39.82
2019-03-24T18:37:24.715Z,39.94
2019-03-24T18:42:27.668Z,39.96
2019-03-24T18:47:29.686Z,39.04
2019-03-24T18:52:31.316Z,40.51
2019-03-24T18:57:32.953Z,40.26
2019-03-24T19:02:35.318Z,39.57
2019-03-24T19:07:36.515Z,39.89
2019-03-24T19:12:37.938Z,39.52
2019-03-24T19:17:39.196Z,39.40
2019-03-24T19:22:40.458Z,39.50
2019-03-24T19:27:41.618Z,40.05
2019-03-24T19:32:45.149Z,40.11
2019-03-24T19:37:46.792Z,39.58
2019-03-24T19:42:48.084Z,41.06
2019-03-24T19:47:49.339Z,41.61
2019-03-24T19:52:51.091Z,41.28
2019-03-24T19:57:52.717Z,41.37
2019-03-24T20:02:54.139Z,42.12
2019-03-24T20:07:55.911Z,41.63
2019-03-24T20:12:58.886Z,41.10
2019-03-24T20:18:02.310Z,41.68
2019-03-24T20:23:03.528Z,41.73
2019-03-24T20:28:05.114Z,42.27
2019-03-24T20:33:06.511Z,41.23
2019-03-24T20:38:08.879Z,40.71
2019-03-24T20:43:10.252Z,41.41
2019-03-24T20:48:11.783Z,42.25
2019-03-24T20:53:18.466Z,42.10
2019-03-24T20:58:17.961Z,43.54
2019-03-24T21:03:19.242Z,42.87
2019-03-24T21:08:22.257Z,42.94
2019-03-24T21:13:23.430Z,41.83
2019-03-24T21:18:24.509Z,42.59
2019-03-24T21:23:29.716Z,43.87
2019-03-24T21:28:30.245Z,43.37
2019-03-24T21:33:31.809Z,44.45
2019-03-24T21:38:33.066Z,44.78
2019-03-24T21:43:34.133Z,45.64
2019-03-24T21:48:37.095Z,45.73
2019-03-24T21:53:40.826Z,45.46
2019-03-24T21:58:41.675Z,46.59
2019-03-24T22:03:42.957Z,45.46
2019-03-24T22:08:44.153Z,47.31
2019-03-24T22:13:45.708Z,46.49
2019-03-24T22:18:47.176Z,44.99
2019-03-24T22:23:52.514Z,44.99
2019-03-24T22:28:51.864Z,45.65
2019-03-24T22:33:53.012Z,46.73
2019-03-24T22:38:55.145Z,48.38
2019-03-24T22:43:56.578Z,48.77
2019-03-24T22:48:58.634Z,48.58
2019-03-24T22:54:03.523Z,48.54
2019-03-24T22:59:03.022Z,49.24
2019-03-24T23:04:04.616Z,49.50
2019-03-24T23:09:08.091Z,50.61
2019-03-24T23:14:10.608Z,50.55
2019-03-24T23:19:11.664Z,50.24
2019-03-24T23:24:15.795Z,51.02
2019-03-24T23:29:16.529Z,51.45
2019-03-24T23:34:19.505Z,49.58
2019-03-24T23:39:20.839Z,49.98
2019-03-24T23:44:22.410Z,48.71
2019-03-24T23:49:23.589Z,48.13
2019-03-24T23:54:27.699Z,49.08
2019-03-24T23:59:29.068Z,48.73
